sensor_id;sensor_type;location;lat;lon;timestamp;temperature;humidity
18777;DHT22;9517;51.174;4.160;2022-12-07T00:01:48;5.10;99.90
18777;DHT22;9517;51.174;4.160;2022-12-07T00:04:17;5.00;99.90
18777;DHT22;9517;51.174;4.160;2022-12-07T00:06:46;4.90;99.90
18777;DHT22;9517;51.174;4.160;2022-12-07T00:09:15;5.00;99.90
18777;DHT22;9517;51.174;4.160;2022-12-07T00:11:42;4.90;99.90
18777;DHT22;9517;51.174;4.160;2022-12-07T00:14:13;4.80;99.90
18777;DHT22;9517;51.174;4.160;2022-12-07T00:16:41;4.80;99.90
18777;DHT22;9517;51.174;4.160;2022-12-07T00:19:11;4.80;99.90
18777;DHT22;9517;51.174;4.160;2022-12-07T00:21:38;4.80;99.90
18777;DHT22;9517;51.174;4.160;2022-12-07T00:24:06;4.70;99.90
18777;DHT22;9517;51.174;4.160;2022-12-07T00:26:34;4.70;99.90
18777;DHT22;9517;51.174;4.160;2022-12-07T00:29:03;4.60;99.90
18777;DHT22;9517;51.174;4.160;2022-12-07T00:31:34;4.60;99.90
18777;DHT22;9517;51.174;4.160;2022-12-07T00:34:04;4.60;99.90
18777;DHT22;9517;51.174;4.160;2022-12-07T00:36:31;4.60;99.90
18777;DHT22;9517;51.174;4.160;2022-12-07T00:38:59;4.60;99.90
18777;DHT22;9517;51.174;4.160;2022-12-07T00:41:29;4.60;99.90
18777;DHT22;9517;51.174;4.160;2022-12-07T00:43:57;4.70;99.90
18777;DHT22;9517;51.174;4.160;2022-12-07T00:46:24;4.80;99.90
18777;DHT22;9517;51.174;4.160;2022-12-07T00:48:54;4.80;99.90
18777;DHT22;9517;51.174;4.160;2022-12-07T00:51:22;4.80;99.90
18777;DHT22;9517;51.174;4.160;2022-12-07T00:53:50;4.90;99.90
18777;DHT22;9517;51.174;4.160;2022-12-07T00:56:19;4.90;99.90
18777;DHT22;9517;51.174;4.160;2022-12-07T00:58:50;5.00;99.90
18777;DHT22;9517;51.174;4.160;2022-12-07T01:01:17;5.00;99.90
18777;DHT22;9517;51.174;4.160;2022-12-07T01:03:44;5.10;99.90
18777;DHT22;9517;51.174;4.160;2022-12-07T01:06:15;5.10;99.90
18777;DHT22;9517;51.174;4.160;2022-12-07T01:08:43;5.10;99.90
18777;DHT22;9517;51.174;4.160;2022-12-07T01:11:12;5.20;99.90
18777;DHT22;9517;51.174;4.160;2022-12-07T01:13:40;5.10;99.90
18777;DHT22;9517;51.174;4.160;2022-12-07T01:16:09;5.10;99.90
18777;DHT22;9517;51.174;4.160;2022-12-07T01:18:38;5.10;99.90
18777;DHT22;9517;51.174;4.160;2022-12-07T01:21:07;5.10;99.90
18777;DHT22;9517;51.174;4.160;2022-12-07T01:23:35;5.10;99.90
18777;DHT22;9517;51.174;4.160;2022-12-07T01:26:05;5.10;99.90
18777;DHT22;9517;51.174;4.160;2022-12-07T01:28:32;5.20;99.90
18777;DHT22;9517;51.174;4.160;2022-12-07T01:31:00;5.20;99.90
18777;DHT22;9517;51.174;4.160;2022-12-07T01:33:29;5.30;99.90
18777;DHT22;9517;51.174;4.160;2022-12-07T01:36:01;5.30;99.90
18777;DHT22;9517;51.174;4.160;2022-12-07T01:38:28;5.20;99.90
18777;DHT22;9517;51.174;4.160;2022-12-07T01:40:57;5.20;99.90
18777;DHT22;9517;51.174;4.160;2022-12-07T01:43:27;5.10;99.90
18777;DHT22;9517;51.174;4.160;2022-12-07T01:45:55;5.10;99.90
18777;DHT22;9517;51.174;4.160;2022-12-07T01:48:26;5.10;99.90
18777;DHT22;9517;51.174;4.160;2022-12-07T01:50:56;5.10;99.90
18777;DHT22;9517;51.174;4.160;2022-12-07T01:53:28;5.10;99.90
18777;DHT22;9517;51.174;4.160;2022-12-07T01:55:58;5.00;99.90
18777;DHT22;9517;51.174;4.160;2022-12-07T01:58:25;5.00;99.90
18777;DHT22;9517;51.174;4.160;2022-12-07T02:00:52;4.90;99.90
18777;DHT22;9517;51.174;4.160;2022-12-07T02:03:22;4.90;99.90
18777;DHT22;9517;51.174;4.160;2022-12-07T02:05:51;4.90;99.90
18777;DHT22;9517;51.174;4.160;2022-12-07T02:08:20;4.90;99.90
18777;DHT22;9517;51.174;4.160;2022-12-07T02:10:47;5.00;99.90
18777;DHT22;9517;51.174;4.160;2022-12-07T02:13:17;5.10;99.90
18777;DHT22;9517;51.174;4.160;2022-12-07T02:16:06;5.10;99.90
18777;DHT22;9517;51.174;4.160;2022-12-07T02:18:44;5.00;99.90
18777;DHT22;9517;51.174;4.160;2022-12-07T02:21:20;5.00;99.90
18777;DHT22;9517;51.174;4.160;2022-12-07T02:24:15;5.10;99.90
18777;DHT22;9517;51.174;4.160;2022-12-07T02:27:11;5.10;99.90
18777;DHT22;9517;51.174;4.160;2022-12-07T02:29:45;5.20;99.90
18777;DHT22;9517;51.174;4.160;2022-12-07T02:32:17;5.20;99.90
18777;DHT22;9517;51.174;4.160;2022-12-07T02:34:50;5.10;99.90
18777;DHT22;9517;51.174;4.160;2022-12-07T02:37:29;5.10;99.90
18777;DHT22;9517;51.174;4.160;2022-12-07T02:40:01;5.10;99.90
18777;DHT22;9517;51.174;4.160;2022-12-07T02:42:34;5.10;99.90
18777;DHT22;9517;51.174;4.160;2022-12-07T02:45:05;5.10;99.90
18777;DHT22;9517;51.174;4.160;2022-12-07T02:47:34;5.00;99.90
18777;DHT22;9517;51.174;4.160;2022-12-07T02:50:04;5.00;99.90
18777;DHT22;9517;51.174;4.160;2022-12-07T02:52:31;5.10;99.90
18777;DHT22;9517;51.174;4.160;2022-12-07T02:54:58;5.20;99.90
18777;DHT22;9517;51.174;4.160;2022-12-07T02:57:44;5.10;99.90
18777;DHT22;9517;51.174;4.160;2022-12-07T03:00:16;5.10;99.90
18777;DHT22;9517;51.174;4.160;2022-12-07T03:02:52;5.10;99.90
18777;DHT22;9517;51.174;4.160;2022-12-07T03:05:39;5.10;99.90
18777;DHT22;9517;51.174;4.160;2022-12-07T03:08:13;5.10;99.90
18777;DHT22;9517;51.174;4.160;2022-12-07T03:10:48;5.20;99.90
18777;DHT22;9517;51.174;4.160;2022-12-07T03:13:23;5.20;99.90
18777;DHT22;9517;51.174;4.160;2022-12-07T03:15:58;5.10;99.90
18777;DHT22;9517;51.174;4.160;2022-12-07T03:18:30;5.10;99.90
18777;DHT22;9517;51.174;4.160;2022-12-07T03:21:03;5.00;99.90
18777;DHT22;9517;51.174;4.160;2022-12-07T03:23:33;5.00;99.90
18777;DHT22;9517;51.174;4.160;2022-12-07T03:26:02;5.00;99.90
18777;DHT22;9517;51.174;4.160;2022-12-07T03:28:34;4.90;99.90
18777;DHT22;9517;51.174;4.160;2022-12-07T03:31:06;4.90;99.90
18777;DHT22;9517;51.174;4.160;2022-12-07T03:33:41;5.00;99.90
18777;DHT22;9517;51.174;4.160;2022-12-07T03:36:16;4.90;99.90
18777;DHT22;9517;51.174;4.160;2022-12-07T03:38:49;4.90;99.90
18777;DHT22;9517;51.174;4.160;2022-12-07T03:41:22;5.00;99.90
18777;DHT22;9517;51.174;4.160;2022-12-07T03:43:50;5.00;99.90
18777;DHT22;9517;51.174;4.160;2022-12-07T03:46:22;5.00;99.90
18777;DHT22;9517;51.174;4.160;2022-12-07T03:48:56;5.00;99.90
18777;DHT22;9517;51.174;4.160;2022-12-07T03:51:31;5.00;99.90
18777;DHT22;9517;51.174;4.160;2022-12-07T03:54:08;5.00;99.90
18777;DHT22;9517;51.174;4.160;2022-12-07T03:56:38;5.00;99.90
18777;DHT22;9517;51.174;4.160;2022-12-07T03:59:05;5.00;99.90
18777;DHT22;9517;51.174;4.160;2022-12-07T04:01:34;5.00;99.90
18777;DHT22;9517;51.174;4.160;2022-12-07T04:04:01;5.00;99.90
18777;DHT22;9517;51.174;4.160;2022-12-07T04:06:28;5.00;99.90
18777;DHT22;9517;51.174;4.160;2022-12-07T04:08:55;4.90;99.90
18777;DHT22;9517;51.174;4.160;2022-12-07T04:11:22;4.80;99.90
18777;DHT22;9517;51.174;4.160;2022-12-07T04:13:49;4.70;99.90
18777;DHT22;9517;51.174;4.160;2022-12-07T04:16:35;4.70;99.90
18777;DHT22;9517;51.174;4.160;2022-12-07T04:19:02;4.60;99.90
18777;DHT22;9517;51.174;4.160;2022-12-07T04:21:29;4.60;99.90
18777;DHT22;9517;51.174;4.160;2022-12-07T04:23:56;4.50;99.90
18777;DHT22;9517;51.174;4.160;2022-12-07T04:26:23;4.50;99.90
18777;DHT22;9517;51.174;4.160;2022-12-07T04:28:50;4.40;99.90
18777;DHT22;9517;51.174;4.160;2022-12-07T04:31:17;4.40;99.90
18777;DHT22;9517;51.174;4.160;2022-12-07T04:33:46;4.40;99.90
18777;DHT22;9517;51.174;4.160;2022-12-07T04:36:13;4.30;99.90
18777;DHT22;9517;51.174;4.160;2022-12-07T04:38:40;4.40;99.90
18777;DHT22;9517;51.174;4.160;2022-12-07T04:41:07;4.40;99.90
18777;DHT22;9517;51.174;4.160;2022-12-07T04:43:35;4.40;99.90
18777;DHT22;9517;51.174;4.160;2022-12-07T04:46:03;4.40;99.90
18777;DHT22;9517;51.174;4.160;2022-12-07T04:48:30;4.50;99.90
18777;DHT22;9517;51.174;4.160;2022-12-07T04:50:59;4.50;99.90
18777;DHT22;9517;51.174;4.160;2022-12-07T04:53:26;4.50;99.90
18777;DHT22;9517;51.174;4.160;2022-12-07T04:55:53;4.60;99.90
18777;DHT22;9517;51.174;4.160;2022-12-07T04:58:20;4.60;99.90
18777;DHT22;9517;51.174;4.160;2022-12-07T05:00:47;4.70;99.90
18777;DHT22;9517;51.174;4.160;2022-12-07T05:03:14;4.80;99.90
18777;DHT22;9517;51.174;4.160;2022-12-07T05:05:41;4.80;99.90
18777;DHT22;9517;51.174;4.160;2022-12-07T05:08:10;4.70;99.90
18777;DHT22;9517;51.174;4.160;2022-12-07T05:10:37;4.60;99.90
18777;DHT22;9517;51.174;4.160;2022-12-07T05:13:04;4.60;99.90
18777;DHT22;9517;51.174;4.160;2022-12-07T05:15:31;4.60;99.90
18777;DHT22;9517;51.174;4.160;2022-12-07T05:17:58;4.70;99.90
18777;DHT22;9517;51.174;4.160;2022-12-07T05:20:28;4.80;99.90
18777;DHT22;9517;51.174;4.160;2022-12-07T05:22:55;4.80;99.90
18777;DHT22;9517;51.174;4.160;2022-12-07T05:25:25;4.90;99.90
18777;DHT22;9517;51.174;4.160;2022-12-07T05:27:52;5.00;99.90
18777;DHT22;9517;51.174;4.160;2022-12-07T05:30:19;5.00;99.90
18777;DHT22;9517;51.174;4.160;2022-12-07T05:32:46;5.10;99.90
18777;DHT22;9517;51.174;4.160;2022-12-07T05:35:13;5.10;99.90
18777;DHT22;9517;51.174;4.160;2022-12-07T05:37:40;5.10;99.90
18777;DHT22;9517;51.174;4.160;2022-12-07T05:40:08;5.20;99.90
18777;DHT22;9517;51.174;4.160;2022-12-07T05:42:37;5.20;99.90
18777;DHT22;9517;51.174;4.160;2022-12-07T05:45:05;5.20;99.90
18777;DHT22;9517;51.174;4.160;2022-12-07T05:47:33;5.10;99.90
18777;DHT22;9517;51.174;4.160;2022-12-07T05:50:00;5.00;99.90
18777;DHT22;9517;51.174;4.160;2022-12-07T05:52:27;4.90;99.90
18777;DHT22;9517;51.174;4.160;2022-12-07T05:54:54;4.90;99.90
18777;DHT22;9517;51.174;4.160;2022-12-07T05:57:21;5.00;99.90
18777;DHT22;9517;51.174;4.160;2022-12-07T05:59:49;5.00;99.90
18777;DHT22;9517;51.174;4.160;2022-12-07T06:02:16;5.00;99.90
18777;DHT22;9517;51.174;4.160;2022-12-07T06:04:45;5.10;99.90
18777;DHT22;9517;51.174;4.160;2022-12-07T06:07:14;5.10;99.90
18777;DHT22;9517;51.174;4.160;2022-12-07T06:09:42;5.10;99.90
18777;DHT22;9517;51.174;4.160;2022-12-07T06:12:10;5.10;99.90
18777;DHT22;9517;51.174;4.160;2022-12-07T06:14:56;5.00;99.90
18777;DHT22;9517;51.174;4.160;2022-12-07T06:17:26;5.10;99.90
18777;DHT22;9517;51.174;4.160;2022-12-07T06:19:53;5.00;99.90
18777;DHT22;9517;51.174;4.160;2022-12-07T06:22:20;5.10;99.90
18777;DHT22;9517;51.174;4.160;2022-12-07T06:24:47;5.00;99.90
18777;DHT22;9517;51.174;4.160;2022-12-07T06:27:14;5.00;99.90
18777;DHT22;9517;51.174;4.160;2022-12-07T06:29:41;4.90;99.90
18777;DHT22;9517;51.174;4.160;2022-12-07T06:32:10;4.90;99.90
18777;DHT22;9517;51.174;4.160;2022-12-07T06:34:37;4.80;99.90
18777;DHT22;9517;51.174;4.160;2022-12-07T06:37:04;4.80;99.90
18777;DHT22;9517;51.174;4.160;2022-12-07T06:39:31;4.90;99.90
18777;DHT22;9517;51.174;4.160;2022-12-07T06:41:58;4.90;99.90
18777;DHT22;9517;51.174;4.160;2022-12-07T06:44:26;4.90;99.90
18777;DHT22;9517;51.174;4.160;2022-12-07T06:46:53;4.80;99.90
18777;DHT22;9517;51.174;4.160;2022-12-07T06:49:22;4.80;99.90
18777;DHT22;9517;51.174;4.160;2022-12-07T06:51:49;4.80;99.90
18777;DHT22;9517;51.174;4.160;2022-12-07T06:54:16;4.70;99.90
18777;DHT22;9517;51.174;4.160;2022-12-07T06:56:43;4.60;99.90
18777;DHT22;9517;51.174;4.160;2022-12-07T06:59:10;4.60;99.90
18777;DHT22;9517;51.174;4.160;2022-12-07T07:01:38;4.50;99.90
18777;DHT22;9517;51.174;4.160;2022-12-07T07:04:05;4.50;99.90
18777;DHT22;9517;51.174;4.160;2022-12-07T07:06:33;4.50;99.90
18777;DHT22;9517;51.174;4.160;2022-12-07T07:09:01;4.40;99.90
18777;DHT22;9517;51.174;4.160;2022-12-07T07:11:28;4.40;99.90
18777;DHT22;9517;51.174;4.160;2022-12-07T07:13:55;4.40;99.90
18777;DHT22;9517;51.174;4.160;2022-12-07T07:16:28;4.30;99.90
18777;DHT22;9517;51.174;4.160;2022-12-07T07:18:55;4.20;99.90
18777;DHT22;9517;51.174;4.160;2022-12-07T07:21:22;4.20;99.90
18777;DHT22;9517;51.174;4.160;2022-12-07T07:23:50;4.20;99.90
18777;DHT22;9517;51.174;4.160;2022-12-07T07:26:17;4.10;99.90
18777;DHT22;9517;51.174;4.160;2022-12-07T07:28:44;4.20;99.90
18777;DHT22;9517;51.174;4.160;2022-12-07T07:31:11;4.20;99.90
18777;DHT22;9517;51.174;4.160;2022-12-07T07:33:38;4.30;99.90
18777;DHT22;9517;51.174;4.160;2022-12-07T07:36:06;4.40;99.90
18777;DHT22;9517;51.174;4.160;2022-12-07T07:38:33;4.40;99.90
18777;DHT22;9517;51.174;4.160;2022-12-07T07:41:01;4.40;99.90
18777;DHT22;9517;51.174;4.160;2022-12-07T07:43:29;4.50;99.90
18777;DHT22;9517;51.174;4.160;2022-12-07T07:45:56;4.50;99.90
18777;DHT22;9517;51.174;4.160;2022-12-07T07:48:23;4.50;99.90
18777;DHT22;9517;51.174;4.160;2022-12-07T07:50:51;4.60;99.90
18777;DHT22;9517;51.174;4.160;2022-12-07T07:53:18;4.50;99.90
18777;DHT22;9517;51.174;4.160;2022-12-07T07:55:51;4.60;99.90
18777;DHT22;9517;51.174;4.160;2022-12-07T07:58:20;4.70;99.90
18777;DHT22;9517;51.174;4.160;2022-12-07T08:00:48;4.70;99.90
18777;DHT22;9517;51.174;4.160;2022-12-07T08:03:15;4.80;99.90
18777;DHT22;9517;51.174;4.160;2022-12-07T08:05:42;4.90;99.90
18777;DHT22;9517;51.174;4.160;2022-12-07T08:08:09;5.00;99.90
18777;DHT22;9517;51.174;4.160;2022-12-07T08:10:37;5.10;99.90
18777;DHT22;9517;51.174;4.160;2022-12-07T08:13:04;5.20;99.90
18777;DHT22;9517;51.174;4.160;2022-12-07T08:15:39;5.10;99.90
18777;DHT22;9517;51.174;4.160;2022-12-07T08:18:07;5.10;99.90
18777;DHT22;9517;51.174;4.160;2022-12-07T08:20:36;5.20;99.90
18777;DHT22;9517;51.174;4.160;2022-12-07T08:23:04;5.10;99.90
18777;DHT22;9517;51.174;4.160;2022-12-07T08:25:31;5.10;99.90
18777;DHT22;9517;51.174;4.160;2022-12-07T08:27:59;5.00;99.90
18777;DHT22;9517;51.174;4.160;2022-12-07T08:30:26;5.00;99.90
18777;DHT22;9517;51.174;4.160;2022-12-07T08:32:56;5.10;99.90
18777;DHT22;9517;51.174;4.160;2022-12-07T08:35:23;5.10;99.90
18777;DHT22;9517;51.174;4.160;2022-12-07T08:37:50;5.10;99.90
18777;DHT22;9517;51.174;4.160;2022-12-07T08:40:17;5.20;99.90
18777;DHT22;9517;51.174;4.160;2022-12-07T08:42:48;5.20;99.90
18777;DHT22;9517;51.174;4.160;2022-12-07T08:45:17;5.30;99.90
18777;DHT22;9517;51.174;4.160;2022-12-07T08:47:46;5.20;99.90
18777;DHT22;9517;51.174;4.160;2022-12-07T08:50:17;5.20;99.90
18777;DHT22;9517;51.174;4.160;2022-12-07T08:52:44;5.30;99.90
18777;DHT22;9517;51.174;4.160;2022-12-07T08:55:15;5.40;99.90
18777;DHT22;9517;51.174;4.160;2022-12-07T08:57:42;5.40;99.90
18777;DHT22;9517;51.174;4.160;2022-12-07T09:00:10;5.50;99.90
18777;DHT22;9517;51.174;4.160;2022-12-07T09:02:38;5.70;99.90
18777;DHT22;9517;51.174;4.160;2022-12-07T09:05:06;5.80;99.90
18777;DHT22;9517;51.174;4.160;2022-12-07T09:07:35;5.90;99.90
18777;DHT22;9517;51.174;4.160;2022-12-07T09:10:03;5.80;99.90
18777;DHT22;9517;51.174;4.160;2022-12-07T09:12:30;5.80;99.90
18777;DHT22;9517;51.174;4.160;2022-12-07T09:14:57;5.80;99.90
18777;DHT22;9517;51.174;4.160;2022-12-07T09:17:26;5.70;99.90
18777;DHT22;9517;51.174;4.160;2022-12-07T09:19:53;5.70;99.90
18777;DHT22;9517;51.174;4.160;2022-12-07T09:22:20;5.60;99.90
18777;DHT22;9517;51.174;4.160;2022-12-07T09:24:48;5.80;99.90
18777;DHT22;9517;51.174;4.160;2022-12-07T09:27:16;6.00;99.90
18777;DHT22;9517;51.174;4.160;2022-12-07T09:29:44;6.20;99.90
18777;DHT22;9517;51.174;4.160;2022-12-07T09:32:11;6.30;99.90
18777;DHT22;9517;51.174;4.160;2022-12-07T09:34:38;6.40;99.90
18777;DHT22;9517;51.174;4.160;2022-12-07T09:37:05;6.20;99.90
18777;DHT22;9517;51.174;4.160;2022-12-07T09:39:32;6.10;99.90
18777;DHT22;9517;51.174;4.160;2022-12-07T09:42:03;6.10;99.90
18777;DHT22;9517;51.174;4.160;2022-12-07T09:44:31;6.20;99.90
18777;DHT22;9517;51.174;4.160;2022-12-07T09:47:01;6.30;99.90
18777;DHT22;9517;51.174;4.160;2022-12-07T09:49:31;6.40;99.90
18777;DHT22;9517;51.174;4.160;2022-12-07T09:52:03;6.50;99.90
18777;DHT22;9517;51.174;4.160;2022-12-07T09:54:47;6.40;99.90
18777;DHT22;9517;51.174;4.160;2022-12-07T09:57:17;6.50;99.90
18777;DHT22;9517;51.174;4.160;2022-12-07T09:59:44;6.40;99.90
18777;DHT22;9517;51.174;4.160;2022-12-07T10:02:26;6.30;99.90
18777;DHT22;9517;51.174;4.160;2022-12-07T10:04:55;6.30;99.90
18777;DHT22;9517;51.174;4.160;2022-12-07T10:07:24;6.40;99.90
18777;DHT22;9517;51.174;4.160;2022-12-07T10:09:51;6.50;99.90
18777;DHT22;9517;51.174;4.160;2022-12-07T10:12:20;6.70;99.90
18777;DHT22;9517;51.174;4.160;2022-12-07T10:14:55;6.80;99.90
18777;DHT22;9517;51.174;4.160;2022-12-07T10:17:36;7.10;99.90
18777;DHT22;9517;51.174;4.160;2022-12-07T10:20:22;7.30;99.90
18777;DHT22;9517;51.174;4.160;2022-12-07T10:22:58;7.40;99.90
18777;DHT22;9517;51.174;4.160;2022-12-07T10:25:27;7.30;99.90
18777;DHT22;9517;51.174;4.160;2022-12-07T10:28:12;7.30;99.90
18777;DHT22;9517;51.174;4.160;2022-12-07T10:30:51;7.30;99.90
18777;DHT22;9517;51.174;4.160;2022-12-07T10:33:37;7.50;99.90
18777;DHT22;9517;51.174;4.160;2022-12-07T10:36:21;7.50;99.90
18777;DHT22;9517;51.174;4.160;2022-12-07T10:38:50;7.90;99.90
18777;DHT22;9517;51.174;4.160;2022-12-07T10:41:17;8.20;99.90
18777;DHT22;9517;51.174;4.160;2022-12-07T10:43:51;8.40;99.90
18777;DHT22;9517;51.174;4.160;2022-12-07T10:46:38;8.50;99.90
18777;DHT22;9517;51.174;4.160;2022-12-07T10:49:39;8.20;99.90
18777;DHT22;9517;51.174;4.160;2022-12-07T10:52:16;7.40;99.90
18777;DHT22;9517;51.174;4.160;2022-12-07T10:54:51;7.30;99.90
18777;DHT22;9517;51.174;4.160;2022-12-07T10:57:32;7.40;99.90
18777;DHT22;9517;51.174;4.160;2022-12-07T11:00:11;7.40;99.90
18777;DHT22;9517;51.174;4.160;2022-12-07T11:02:58;7.70;99.90
18777;DHT22;9517;51.174;4.160;2022-12-07T11:05:31;8.80;99.90
18777;DHT22;9517;51.174;4.160;2022-12-07T11:08:04;10.30;99.90
18777;DHT22;9517;51.174;4.160;2022-12-07T11:10:43;11.40;99.90
18777;DHT22;9517;51.174;4.160;2022-12-07T11:13:28;11.60;99.90
18777;DHT22;9517;51.174;4.160;2022-12-07T11:16:19;10.80;99.90
18777;DHT22;9517;51.174;4.160;2022-12-07T11:18:55;11.80;99.90
18777;DHT22;9517;51.174;4.160;2022-12-07T11:21:31;13.30;99.90
18777;DHT22;9517;51.174;4.160;2022-12-07T11:24:06;14.00;99.90
18777;DHT22;9517;51.174;4.160;2022-12-07T11:26:57;14.10;99.90
18777;DHT22;9517;51.174;4.160;2022-12-07T11:30:02;14.10;99.90
18777;DHT22;9517;51.174;4.160;2022-12-07T11:32:44;14.40;99.90
18777;DHT22;9517;51.174;4.160;2022-12-07T11:35:20;15.00;99.90
18777;DHT22;9517;51.174;4.160;2022-12-07T11:37:54;14.90;99.90
18777;DHT22;9517;51.174;4.160;2022-12-07T11:40:26;15.00;99.90
18777;DHT22;9517;51.174;4.160;2022-12-07T11:42:58;14.50;99.90
18777;DHT22;9517;51.174;4.160;2022-12-07T11:45:27;14.30;99.90
18777;DHT22;9517;51.174;4.160;2022-12-07T11:48:00;14.30;99.90
18777;DHT22;9517;51.174;4.160;2022-12-07T11:50:33;13.00;99.90
18777;DHT22;9517;51.174;4.160;2022-12-07T11:53:03;12.70;99.90
18777;DHT22;9517;51.174;4.160;2022-12-07T11:55:41;13.60;99.90
18777;DHT22;9517;51.174;4.160;2022-12-07T11:58:21;13.90;99.90
18777;DHT22;9517;51.174;4.160;2022-12-07T12:00:53;14.30;99.90
18777;DHT22;9517;51.174;4.160;2022-12-07T12:03:28;14.10;99.90
18777;DHT22;9517;51.174;4.160;2022-12-07T12:05:57;13.30;99.90
18777;DHT22;9517;51.174;4.160;2022-12-07T12:08:29;12.10;99.90
18777;DHT22;9517;51.174;4.160;2022-12-07T12:11:02;11.10;99.90
18777;DHT22;9517;51.174;4.160;2022-12-07T12:13:57;10.40;99.90
18777;DHT22;9517;51.174;4.160;2022-12-07T12:19:59;9.40;99.90
18777;DHT22;9517;51.174;4.160;2022-12-07T12:22:34;9.10;99.90
18777;DHT22;9517;51.174;4.160;2022-12-07T12:25:04;8.60;99.90
18777;DHT22;9517;51.174;4.160;2022-12-07T12:27:35;8.50;99.90
18777;DHT22;9517;51.174;4.160;2022-12-07T12:30:07;8.40;99.90
18777;DHT22;9517;51.174;4.160;2022-12-07T12:32:38;8.30;99.90
18777;DHT22;9517;51.174;4.160;2022-12-07T12:35:29;9.00;99.90
18777;DHT22;9517;51.174;4.160;2022-12-07T12:38:31;9.40;99.90
18777;DHT22;9517;51.174;4.160;2022-12-07T12:41:00;8.90;99.90
18777;DHT22;9517;51.174;4.160;2022-12-07T12:43:45;8.90;99.90
18777;DHT22;9517;51.174;4.160;2022-12-07T12:46:36;9.10;99.90
18777;DHT22;9517;51.174;4.160;2022-12-07T12:58:43;8.90;99.90
18777;DHT22;9517;51.174;4.160;2022-12-07T13:01:44;8.10;99.90
18777;DHT22;9517;51.174;4.160;2022-12-07T13:04:36;7.10;99.90
18777;DHT22;9517;51.174;4.160;2022-12-07T13:07:07;6.80;99.90
18777;DHT22;9517;51.174;4.160;2022-12-07T13:09:35;6.70;99.90
18777;DHT22;9517;51.174;4.160;2022-12-07T13:12:11;6.70;99.90
18777;DHT22;9517;51.174;4.160;2022-12-07T13:14:54;6.70;99.90
18777;DHT22;9517;51.174;4.160;2022-12-07T13:17:56;6.50;99.90
18777;DHT22;9517;51.174;4.160;2022-12-07T13:20:43;6.50;99.90
18777;DHT22;9517;51.174;4.160;2022-12-07T13:23:12;6.50;99.90
18777;DHT22;9517;51.174;4.160;2022-12-07T13:25:56;6.40;99.90
18777;DHT22;9517;51.174;4.160;2022-12-07T13:28:33;6.50;99.90
18777;DHT22;9517;51.174;4.160;2022-12-07T13:31:15;6.60;99.90
18777;DHT22;9517;51.174;4.160;2022-12-07T13:33:46;6.50;99.90
18777;DHT22;9517;51.174;4.160;2022-12-07T13:36:19;6.40;99.90
18777;DHT22;9517;51.174;4.160;2022-12-07T13:38:52;6.30;99.90
18777;DHT22;9517;51.174;4.160;2022-12-07T13:41:20;6.40;99.90
18777;DHT22;9517;51.174;4.160;2022-12-07T13:43:58;6.30;99.90
18777;DHT22;9517;51.174;4.160;2022-12-07T13:46:34;6.20;99.90
18777;DHT22;9517;51.174;4.160;2022-12-07T13:49:02;6.10;99.90
18777;DHT22;9517;51.174;4.160;2022-12-07T13:51:34;6.10;99.90
18777;DHT22;9517;51.174;4.160;2022-12-07T13:54:10;6.00;99.90
18777;DHT22;9517;51.174;4.160;2022-12-07T13:56:37;6.00;99.90
18777;DHT22;9517;51.174;4.160;2022-12-07T13:59:13;6.00;99.90
18777;DHT22;9517;51.174;4.160;2022-12-07T14:01:40;6.10;99.90
18777;DHT22;9517;51.174;4.160;2022-12-07T14:04:32;6.20;99.90
18777;DHT22;9517;51.174;4.160;2022-12-07T14:07:01;6.30;99.90
18777;DHT22;9517;51.174;4.160;2022-12-07T14:09:54;6.40;99.90
18777;DHT22;9517;51.174;4.160;2022-12-07T14:12:21;6.30;99.90
18777;DHT22;9517;51.174;4.160;2022-12-07T14:14:51;6.30;99.90
18777;DHT22;9517;51.174;4.160;2022-12-07T14:17:19;6.30;99.90
18777;DHT22;9517;51.174;4.160;2022-12-07T14:19:50;6.30;99.90
18777;DHT22;9517;51.174;4.160;2022-12-07T14:22:26;6.30;99.90
18777;DHT22;9517;51.174;4.160;2022-12-07T14:25:16;6.40;99.90
18777;DHT22;9517;51.174;4.160;2022-12-07T14:27:54;6.40;99.90
18777;DHT22;9517;51.174;4.160;2022-12-07T14:30:26;6.40;99.90
18777;DHT22;9517;51.174;4.160;2022-12-07T14:32:57;6.20;99.90
18777;DHT22;9517;51.174;4.160;2022-12-07T14:35:24;6.30;99.90
18777;DHT22;9517;51.174;4.160;2022-12-07T14:37:52;6.30;99.90
18777;DHT22;9517;51.174;4.160;2022-12-07T14:40:21;6.20;99.90
18777;DHT22;9517;51.174;4.160;2022-12-07T14:42:51;6.10;99.90
18777;DHT22;9517;51.174;4.160;2022-12-07T14:45:20;6.10;99.90
18777;DHT22;9517;51.174;4.160;2022-12-07T14:47:49;6.00;99.90
18777;DHT22;9517;51.174;4.160;2022-12-07T14:50:17;5.90;99.90
18777;DHT22;9517;51.174;4.160;2022-12-07T14:52:48;5.90;99.90
18777;DHT22;9517;51.174;4.160;2022-12-07T14:55:20;5.90;99.90
18777;DHT22;9517;51.174;4.160;2022-12-07T14:57:49;5.90;99.90
18777;DHT22;9517;51.174;4.160;2022-12-07T15:00:17;5.80;99.90
18777;DHT22;9517;51.174;4.160;2022-12-07T15:02:44;5.90;99.90
18777;DHT22;9517;51.174;4.160;2022-12-07T15:05:13;5.90;99.90
18777;DHT22;9517;51.174;4.160;2022-12-07T15:07:40;5.90;99.90
18777;DHT22;9517;51.174;4.160;2022-12-07T15:10:14;5.90;99.90
18777;DHT22;9517;51.174;4.160;2022-12-07T15:12:43;5.80;99.90
18777;DHT22;9517;51.174;4.160;2022-12-07T15:15:10;5.80;99.90
18777;DHT22;9517;51.174;4.160;2022-12-07T15:17:37;5.90;99.90
18777;DHT22;9517;51.174;4.160;2022-12-07T15:20:05;5.80;99.90
18777;DHT22;9517;51.174;4.160;2022-12-07T15:22:34;6.00;99.90
18777;DHT22;9517;51.174;4.160;2022-12-07T15:25:01;5.90;99.90
18777;DHT22;9517;51.174;4.160;2022-12-07T15:27:30;6.00;99.90
18777;DHT22;9517;51.174;4.160;2022-12-07T15:29:57;6.10;99.90
18777;DHT22;9517;51.174;4.160;2022-12-07T15:32:24;6.20;99.90
18777;DHT22;9517;51.174;4.160;2022-12-07T15:34:51;6.20;99.90
18777;DHT22;9517;51.174;4.160;2022-12-07T15:37:18;6.20;99.90
18777;DHT22;9517;51.174;4.160;2022-12-07T15:39:48;6.20;99.90
18777;DHT22;9517;51.174;4.160;2022-12-07T15:42:15;6.30;99.90
18777;DHT22;9517;51.174;4.160;2022-12-07T15:44:42;6.20;99.90
18777;DHT22;9517;51.174;4.160;2022-12-07T15:47:26;6.20;99.90
18777;DHT22;9517;51.174;4.160;2022-12-07T15:49:53;6.20;99.90
18777;DHT22;9517;51.174;4.160;2022-12-07T15:52:20;6.20;99.90
18777;DHT22;9517;51.174;4.160;2022-12-07T15:54:49;6.10;99.90
18777;DHT22;9517;51.174;4.160;2022-12-07T15:57:16;6.00;99.90
18777;DHT22;9517;51.174;4.160;2022-12-07T15:59:43;6.00;99.90
18777;DHT22;9517;51.174;4.160;2022-12-07T16:02:10;6.00;99.90
18777;DHT22;9517;51.174;4.160;2022-12-07T16:04:37;6.00;99.90
18777;DHT22;9517;51.174;4.160;2022-12-07T16:07:04;5.90;99.90
18777;DHT22;9517;51.174;4.160;2022-12-07T16:09:31;5.80;99.90
18777;DHT22;9517;51.174;4.160;2022-12-07T16:12:00;5.80;99.90
18777;DHT22;9517;51.174;4.160;2022-12-07T16:14:27;5.70;99.90
18777;DHT22;9517;51.174;4.160;2022-12-07T16:16:54;5.70;99.90
18777;DHT22;9517;51.174;4.160;2022-12-07T16:19:21;5.70;99.90
18777;DHT22;9517;51.174;4.160;2022-12-07T16:21:48;5.70;99.90
18777;DHT22;9517;51.174;4.160;2022-12-07T16:24:15;5.70;99.90
18777;DHT22;9517;51.174;4.160;2022-12-07T16:26:43;5.70;99.90
18777;DHT22;9517;51.174;4.160;2022-12-07T16:29:12;5.80;99.90
18777;DHT22;9517;51.174;4.160;2022-12-07T16:31:40;5.80;99.90
18777;DHT22;9517;51.174;4.160;2022-12-07T16:34:08;5.70;99.90
18777;DHT22;9517;51.174;4.160;2022-12-07T16:36:35;5.70;99.90
18777;DHT22;9517;51.174;4.160;2022-12-07T16:39:03;5.60;99.90